Terminal Aerodrome Forecast
Issued by NWS Omaha/Valley, NE

Home | Current Version | Previous Version | Text Only | Print | Product List | Glossary On
Versions: 1 2 3 4 5 6 7 8 9 10 11 12 13 14 15 16 17 18 19 20 21 22 23 24 25 26 27 28
171
FTUS43 KOAX 191738
TAFOMA
TAF
KOMA 191738Z 1918/2018 17015G20KT P6SM SCT250
     FM200100 16012KT P6SM BKN035
     FM200400 16013KT 5SM BR BKN015 WS020/19038KT
     FM200700 16008KT 2SM BR OVC008 WS020/20043KT PROB30 2011/2015
      -SHRA
     FM201600 18011KT 4SM BR OVC015=

USA.gov is the U.S. government's official web portal to all federal, state and local government web resources and services.